Time;durP1;ratioP1;P1;durP2;ratioP2;P2;SDS_P1;SDS_P2;PMS_P1;PMS_P2;Temp;Humidity;BMP_temperature;BMP_pressure;BME280_temperature;BME280_humidity;BME280_pressure;Samples;Min_cycle;Max_cycle;Signal;HPM_P1;HPM_P2
2023/09/30 00:00:59;;;;;;;9.67;5.10;;;12.50;99.90;;;;;;4992241;28;20238;-70
2023/09/30 00:03:25;;;;;;;11.77;6.30;;;12.50;99.90;;;;;;4984848;28;20181;-70
2023/09/30 00:05:51;;;;;;;9.67;5.90;;;12.40;99.90;;;;;;4989925;28;20189;-71
2023/09/30 00:08:16;;;;;;;10.37;6.20;;;12.40;99.90;;;;;;4992878;28;20243;-70
2023/09/30 00:10:42;;;;;;;19.80;7.07;;;12.40;99.90;;;;;;4992466;28;20207;-72
2023/09/30 00:13:07;;;;;;;14.53;7.00;;;12.40;99.90;;;;;;4991938;28;20227;-71
2023/09/30 00:15:34;;;;;;;11.73;6.17;;;12.30;99.90;;;;;;4992381;28;20291;-71
2023/09/30 00:18:01;;;;;;;11.47;6.33;;;12.20;99.90;;;;;;4992166;28;20185;-69
2023/09/30 00:20:27;;;;;;;12.37;5.83;;;12.20;99.90;;;;;;4989422;28;20197;-70
2023/09/30 00:22:52;;;;;;;13.17;5.93;;;12.20;99.90;;;;;;4991780;28;20193;-71
2023/09/30 00:25:18;;;;;;;10.57;6.53;;;12.20;99.90;;;;;;4991030;28;20676;-70
2023/09/30 00:27:44;;;;;;;14.13;6.53;;;12.20;99.90;;;;;;4988322;28;20180;-70
2023/09/30 00:30:10;;;;;;;11.40;6.57;;;12.30;99.90;;;;;;4991864;28;20225;-69
2023/09/30 00:32:35;;;;;;;9.60;6.33;;;12.30;99.90;;;;;;4991937;28;20184;-71
2023/09/30 00:35:02;;;;;;;12.03;6.70;;;12.30;99.90;;;;;;4991769;28;20551;-71
2023/09/30 00:37:28;;;;;;;15.30;6.13;;;12.40;99.90;;;;;;4985710;28;20330;-70
2023/09/30 00:39:55;;;;;;;20.00;7.13;;;12.40;99.90;;;;;;4991890;28;20240;-70
2023/09/30 00:42:21;;;;;;;14.33;6.80;;;12.50;99.90;;;;;;4991456;28;20197;-72
2023/09/30 00:44:47;;;;;;;16.03;7.43;;;12.50;99.90;;;;;;4991604;28;20657;-70
2023/09/30 00:47:14;;;;;;;13.43;7.33;;;12.40;99.90;;;;;;4990265;28;20266;-70
2023/09/30 00:49:43;;;;;;;9.87;7.27;;;12.40;99.90;;;;;;4990644;28;20622;-70
2023/09/30 00:52:10;;;;;;;12.17;6.53;;;12.40;99.90;;;;;;4991521;28;20192;-72
2023/09/30 00:54:37;;;;;;;12.10;6.67;;;12.40;99.90;;;;;;4985638;28;20235;-71
2023/09/30 00:57:03;;;;;;;14.77;6.97;;;12.40;99.90;;;;;;4989917;28;20181;-72
2023/09/30 00:59:32;;;;;;;8.87;7.13;;;12.40;99.90;;;;;;4992092;28;20268;-70
2023/09/30 01:01:59;;;;;;;19.97;6.77;;;12.40;99.90;;;;;;4988382;28;20201;-71
2023/09/30 01:04:27;;;;;;;17.60;6.93;;;12.40;99.90;;;;;;4991805;28;20675;-72
2023/09/30 01:06:52;;;;;;;14.30;6.30;;;12.40;99.90;;;;;;4991678;28;20357;-74
2023/09/30 01:09:19;;;;;;;10.53;6.77;;;12.40;99.90;;;;;;4990264;28;20733;-71
2023/09/30 01:11:44;;;;;;;12.50;6.67;;;12.40;99.90;;;;;;4987207;28;20186;-71
2023/09/30 01:14:34;;;;;;;15.33;6.87;;;12.50;99.90;;;;;;4991475;28;20805;-71
2023/09/30 01:17:00;;;;;;;16.77;6.80;;;12.50;99.90;;;;;;4988843;28;20189;-71
2023/09/30 01:19:27;;;;;;;19.30;7.57;;;12.50;99.90;;;;;;4991540;28;20208;-72
2023/09/30 01:22:03;;;;;;;14.13;6.63;;;12.50;99.90;;;;;;4991250;28;20184;-71
2023/09/30 01:24:29;;;;;;;10.73;6.53;;;12.50;99.90;;;;;;4991541;28;20177;-71
2023/09/30 01:26:56;;;;;;;23.27;7.83;;;12.60;99.90;;;;;;4989935;28;20556;-71
2023/09/30 01:29:22;;;;;;;18.27;8.97;;;12.60;99.90;;;;;;4991425;28;20208;-71
2023/09/30 01:31:49;;;;;;;14.50;7.47;;;12.50;99.90;;;;;;4988250;28;20536;-71
2023/09/30 01:34:15;;;;;;;12.77;7.83;;;12.50;99.90;;;;;;4991287;28;20220;-71
2023/09/30 01:36:42;;;;;;;15.60;7.90;;;12.50;99.90;;;;;;4991447;28;20691;-72
2023/09/30 01:39:11;;;;;;;16.20;8.00;;;12.50;99.90;;;;;;4991167;28;20212;-71
2023/09/30 01:41:41;;;;;;;17.57;7.47;;;12.50;99.90;;;;;;4991225;28;20177;-72
2023/09/30 01:44:07;;;;;;;14.07;7.93;;;12.60;99.90;;;;;;4991354;28;20256;-71
2023/09/30 01:46:33;;;;;;;11.77;7.23;;;12.60;99.90;;;;;;4986087;28;20572;-71
2023/09/30 01:48:58;;;;;;;15.63;8.20;;;12.60;99.90;;;;;;4991198;28;20188;-71
2023/09/30 01:51:24;;;;;;;13.73;7.47;;;12.70;99.90;;;;;;4991847;28;20591;-72
2023/09/30 01:53:50;;;;;;;13.23;6.73;;;12.70;99.90;;;;;;4993616;28;20631;-71
2023/09/30 01:56:15;;;;;;;10.93;6.47;;;12.70;99.90;;;;;;4994810;28;20192;-72
2023/09/30 01:58:41;;;;;;;9.97;7.20;;;12.70;99.90;;;;;;4995001;28;20181;-71
2023/09/30 02:01:07;;;;;;;13.47;6.23;;;12.60;99.90;;;;;;4986763;28;20791;-72
2023/09/30 02:03:32;;;;;;;12.23;6.73;;;12.60;99.90;;;;;;4994642;28;20195;-70
2023/09/30 02:05:58;;;;;;;10.57;7.13;;;12.50;99.90;;;;;;4994637;28;20191;-72
2023/09/30 02:08:24;;;;;;;12.57;8.03;;;12.40;99.90;;;;;;4994507;28;20259;-71
2023/09/30 02:10:53;;;;;;;15.43;7.43;;;12.40;99.90;;;;;;4986220;28;20629;-71
2023/09/30 02:13:19;;;;;;;13.97;7.07;;;12.30;99.90;;;;;;4990327;28;20212;-71
2023/09/30 02:15:45;;;;;;;14.33;8.87;;;12.30;99.90;;;;;;4996268;28;20191;-71
2023/09/30 02:18:11;;;;;;;15.20;8.27;;;12.20;99.90;;;;;;4996479;28;20214;-71
2023/09/30 02:20:39;;;;;;;16.60;7.83;;;12.20;99.90;;;;;;4991853;28;20245;-71
2023/09/30 02:23:12;;;;;;;8.43;7.00;;;12.30;99.90;;;;;;4992601;28;20184;-70
2023/09/30 02:25:39;;;;;;;12.33;6.90;;;12.20;99.90;;;;;;4993262;28;20177;-71
2023/09/30 02:28:06;;;;;;;15.00;6.93;;;12.10;99.90;;;;;;4994140;28;20181;-71
2023/09/30 02:30:31;;;;;;;13.60;6.47;;;12.10;99.90;;;;;;4986721;28;20228;-71
2023/09/30 02:32:57;;;;;;;14.20;6.67;;;12.00;99.90;;;;;;4993843;28;20753;-71
2023/09/30 02:35:23;;;;;;;13.07;6.37;;;12.00;99.90;;;;;;4994213;28;20579;-72
2023/09/30 02:37:52;;;;;;;11.07;6.77;;;11.90;99.90;;;;;;4994232;28;20229;-72
2023/09/30 02:40:19;;;;;;;13.53;6.47;;;11.90;99.90;;;;;;4993712;28;20196;-72
2023/09/30 02:42:45;;;;;;;14.33;6.97;;;11.90;99.90;;;;;;4993897;28;20172;-72
2023/09/30 02:45:12;;;;;;;16.53;7.20;;;11.90;99.90;;;;;;4987495;28;20192;-72
2023/09/30 02:47:39;;;;;;;12.03;6.87;;;11.90;99.90;;;;;;4988481;28;20196;-72
2023/09/30 02:50:08;;;;;;;13.30;7.10;;;11.80;99.90;;;;;;4983504;28;20203;-72
2023/09/30 02:52:34;;;;;;;16.33;7.90;;;11.80;99.90;;;;;;4993520;28;20259;-73
2023/09/30 02:55:00;;;;;;;16.27;7.40;;;11.80;99.90;;;;;;4993545;28;20724;-73
2023/09/30 02:57:27;;;;;;;13.37;6.77;;;11.80;99.90;;;;;;4993778;28;20590;-72
2023/09/30 02:59:54;;;;;;;11.30;6.60;;;11.80;99.90;;;;;;4989538;28;20235;-73
2023/09/30 03:02:21;;;;;;;13.87;6.67;;;11.80;99.90;;;;;;4993673;28;20177;-72
2023/09/30 03:04:47;;;;;;;13.37;7.23;;;11.80;99.90;;;;;;4993693;28;20212;-72
2023/09/30 03:07:13;;;;;;;18.00;7.00;;;11.80;99.90;;;;;;4993526;28;20209;-71
2023/09/30 03:09:39;;;;;;;16.67;7.67;;;11.80;99.90;;;;;;4993441;28;20577;-72
2023/09/30 03:12:05;;;;;;;10.87;7.27;;;11.80;99.90;;;;;;4985091;28;20196;-72
2023/09/30 03:14:31;;;;;;;18.63;7.80;;;11.80;99.90;;;;;;4987201;28;20711;-72
2023/09/30 03:16:58;;;;;;;9.13;6.73;;;11.80;99.90;;;;;;4993218;28;20528;-72
2023/09/30 03:19:24;;;;;;;13.23;7.57;;;11.80;99.90;;;;;;4977713;28;20284;-72
2023/09/30 03:21:50;;;;;;;15.43;7.53;;;11.70;99.90;;;;;;4990647;28;20271;-71
2023/09/30 03:24:15;;;;;;;17.50;7.33;;;11.70;99.90;;;;;;4991998;28;20185;-71
2023/09/30 03:26:41;;;;;;;14.43;6.90;;;11.70;99.90;;;;;;4993234;28;20716;-72
2023/09/30 03:29:08;;;;;;;16.77;7.17;;;11.60;99.90;;;;;;4982122;28;20240;-72
2023/09/30 03:31:34;;;;;;;13.13;7.13;;;11.60;99.90;;;;;;4992872;28;20181;-72
2023/09/30 03:34:00;;;;;;;10.80;6.53;;;11.60;99.90;;;;;;4992939;28;20215;-70
2023/09/30 03:36:26;;;;;;;12.63;7.03;;;11.60;99.90;;;;;;4993063;28;20542;-70
2023/09/30 03:38:54;;;;;;;15.30;7.20;;;11.50;99.90;;;;;;4992919;28;20637;-71
2023/09/30 03:41:20;;;;;;;11.93;6.63;;;11.40;99.90;;;;;;4984426;28;20637;-71
2023/09/30 03:43:47;;;;;;;17.80;6.97;;;11.30;99.90;;;;;;4986117;28;20208;-71
2023/09/30 03:46:13;;;;;;;19.03;6.90;;;11.30;99.90;;;;;;4991207;28;20660;-71
2023/09/30 03:48:42;;;;;;;10.50;6.93;;;11.20;99.90;;;;;;4992925;28;20176;-71
2023/09/30 03:51:14;;;;;;;11.70;6.57;;;11.10;99.90;;;;;;4992178;28;20192;-71
2023/09/30 03:53:46;;;;;;;12.80;6.50;;;11.10;99.90;;;;;;4992707;28;20684;-71
2023/09/30 03:56:13;;;;;;;16.87;7.37;;;11.10;99.90;;;;;;4993153;28;20177;-72
2023/09/30 03:58:42;;;;;;;12.23;6.87;;;11.00;99.90;;;;;;4983886;28;20173;-70
2023/09/30 04:01:11;;;;;;;10.17;6.37;;;11.00;99.90;;;;;;4990705;28;20208;-71
2023/09/30 04:03:39;;;;;;;15.57;6.40;;;10.90;99.90;;;;;;4992607;28;20593;-71
2023/09/30 04:06:06;;;;;;;14.13;7.20;;;10.90;99.90;;;;;;4992491;28;20216;-71
2023/09/30 04:08:35;;;;;;;9.80;7.13;;;10.90;99.90;;;;;;4992783;28;20177;-71
2023/09/30 04:11:02;;;;;;;13.43;7.07;;;10.90;99.90;;;;;;4992016;28;20674;-71
2023/09/30 04:13:29;;;;;;;18.60;7.17;;;10.90;99.90;;;;;;4989554;28;20208;-71
2023/09/30 04:15:55;;;;;;;13.67;7.60;;;11.00;99.90;;;;;;4987939;28;20176;-71
2023/09/30 04:18:22;;;;;;;15.77;7.60;;;11.00;99.90;;;;;;4992189;28;20213;-72
2023/09/30 04:20:48;;;;;;;13.83;7.90;;;11.00;99.90;;;;;;4992129;28;20575;-70
2023/09/30 04:23:15;;;;;;;14.27;7.47;;;11.00;99.90;;;;;;4990766;28;20525;-71
2023/09/30 04:25:40;;;;;;;17.70;7.90;;;11.10;99.90;;;;;;4992303;28;20231;-71
2023/09/30 04:28:08;;;;;;;13.87;7.93;;;11.10;99.90;;;;;;4986097;28;20193;-72
2023/09/30 04:30:34;;;;;;;12.20;7.57;;;11.10;99.90;;;;;;4987384;28;20291;-71
2023/09/30 04:33:00;;;;;;;14.17;7.33;;;11.00;99.90;;;;;;4988162;28;20687;-72
2023/09/30 04:35:26;;;;;;;15.77;7.57;;;11.00;99.90;;;;;;4991953;28;20168;-72
2023/09/30 04:37:52;;;;;;;12.20;7.10;;;11.00;99.90;;;;;;4990705;28;20231;-71
2023/09/30 04:40:21;;;;;;;13.40;7.30;;;10.90;99.90;;;;;;4991736;28;20192;-72
2023/09/30 04:42:47;;;;;;;14.67;7.93;;;10.90;99.90;;;;;;4992117;28;20177;-72
2023/09/30 04:45:16;;;;;;;13.07;7.77;;;10.90;99.90;;;;;;4989624;28;20186;-72
2023/09/30 04:47:44;;;;;;;9.83;7.17;;;10.90;99.90;;;;;;4983568;28;20346;-72
2023/09/30 04:50:11;;;;;;;13.57;6.83;;;10.80;99.90;;;;;;4991785;28;20208;-72
2023/09/30 04:52:38;;;;;;;12.80;6.70;;;10.80;99.90;;;;;;4991561;28;20180;-71
2023/09/30 04:55:04;;;;;;;15.60;7.83;;;10.70;99.90;;;;;;4991738;28;20169;-72
2023/09/30 04:57:31;;;;;;;13.23;7.40;;;10.70;99.90;;;;;;4991814;28;20180;-72
2023/09/30 04:59:57;;;;;;;16.60;8.47;;;10.70;99.90;;;;;;4991870;28;20203;-71
2023/09/30 05:02:24;;;;;;;14.27;8.23;;;10.70;99.90;;;;;;4985544;28;20193;-71
2023/09/30 05:04:49;;;;;;;13.53;8.03;;;10.70;99.90;;;;;;4991891;28;20648;-71
2023/09/30 05:07:15;;;;;;;28.07;9.40;;;10.70;99.90;;;;;;4991534;28;20183;-72
2023/09/30 05:09:42;;;;;;;18.43;9.60;;;10.60;99.90;;;;;;4991767;28;20209;-71
2023/09/30 05:12:08;;;;;;;19.70;9.00;;;10.60;99.90;;;;;;4986179;28;20208;-71
2023/09/30 05:14:36;;;;;;;13.53;7.53;;;10.70;99.90;;;;;;4991964;28;20235;-71
2023/09/30 05:17:02;;;;;;;14.00;8.10;;;10.60;99.90;;;;;;4986695;28;20185;-72
2023/09/30 05:19:28;;;;;;;18.13;8.00;;;10.50;99.90;;;;;;4991601;28;20193;-71
2023/09/30 05:21:53;;;;;;;11.93;7.93;;;10.50;99.90;;;;;;4988831;28;20177;-71
2023/09/30 05:24:19;;;;;;;14.57;7.97;;;10.50;99.90;;;;;;4990163;28;20612;-71
2023/09/30 05:26:45;;;;;;;13.33;8.27;;;10.50;99.90;;;;;;4991553;28;20267;-72
2023/09/30 05:29:10;;;;;;;19.00;7.87;;;10.50;99.90;;;;;;4993904;28;20207;-71
2023/09/30 05:31:36;;;;;;;16.67;8.13;;;10.50;99.90;;;;;;4994990;28;20231;-71
2023/09/30 05:34:02;;;;;;;19.57;8.60;;;10.40;99.90;;;;;;4992771;28;20209;-71
2023/09/30 05:36:28;;;;;;;14.87;8.53;;;10.50;99.90;;;;;;4994926;28;20173;-71
2023/09/30 05:38:55;;;;;;;16.70;8.50;;;10.50;99.90;;;;;;4994686;28;20231;-70
2023/09/30 05:41:21;;;;;;;14.70;8.47;;;10.50;99.90;;;;;;4994542;28;20191;-71
2023/09/30 05:43:47;;;;;;;22.07;9.47;;;10.40;99.90;;;;;;4994979;28;20676;-71
2023/09/30 05:46:13;;;;;;;17.60;9.47;;;10.50;99.90;;;;;;4994944;28;20207;-71
2023/09/30 05:48:41;;;;;;;19.27;9.10;;;10.60;99.90;;;;;;4990256;28;20271;-71
2023/09/30 05:51:07;;;;;;;15.50;9.23;;;10.70;99.90;;;;;;4994262;28;20200;-72
2023/09/30 05:53:32;;;;;;;20.60;9.63;;;10.80;99.90;;;;;;4993406;28;20680;-72
2023/09/30 05:55:59;;;;;;;23.10;9.90;;;10.80;99.90;;;;;;4994894;28;20195;-72
2023/09/30 05:58:26;;;;;;;20.20;8.80;;;10.90;99.90;;;;;;4994613;28;20258;-71
2023/09/30 06:00:53;;;;;;;14.87;8.70;;;11.00;99.90;;;;;;4990137;28;20213;-72
2023/09/30 06:03:21;;;;;;;16.90;9.20;;;11.00;99.90;;;;;;4992551;28;20252;-72
2023/09/30 06:05:46;;;;;;;16.47;9.70;;;11.10;99.90;;;;;;4994670;28;20184;-71
2023/09/30 06:08:14;;;;;;;16.33;9.70;;;11.20;99.90;;;;;;4994409;28;20195;-72
2023/09/30 06:10:43;;;;;;;21.47;9.97;;;11.30;99.90;;;;;;4994446;28;20227;-72
2023/09/30 06:13:13;;;;;;;13.53;9.50;;;11.40;99.90;;;;;;4985718;28;20197;-74
2023/09/30 06:15:43;;;;;;;18.67;9.67;;;11.50;99.90;;;;;;4974211;28;20177;-72
2023/09/30 06:18:12;;;;;;;20.73;9.07;;;11.60;99.90;;;;;;4994162;28;20177;-72
2023/09/30 06:20:38;;;;;;;20.07;9.77;;;11.70;99.90;;;;;;4994029;28;20217;-70
2023/09/30 06:23:03;;;;;;;20.30;10.27;;;11.70;99.90;;;;;;4986290;28;20688;-72
2023/09/30 06:25:30;;;;;;;21.50;10.63;;;11.80;99.90;;;;;;4993432;28;20181;-71
2023/09/30 06:27:56;;;;;;;20.83;10.10;;;11.90;99.90;;;;;;4994346;28;20696;-71
2023/09/30 06:30:29;;;;;;;19.57;10.00;;;12.00;99.90;;;;;;4993657;28;20207;-71
2023/09/30 06:32:59;;;;;;;19.73;9.50;;;12.00;99.90;;;;;;4981203;28;20204;-72
2023/09/30 06:35:26;;;;;;;20.90;10.50;;;12.00;99.90;;;;;;4993505;28;20235;-71
2023/09/30 06:37:51;;;;;;;27.27;10.27;;;12.10;99.90;;;;;;4993772;28;20272;-71
2023/09/30 06:40:18;;;;;;;17.90;9.53;;;12.20;99.90;;;;;;4993184;28;20654;-71
2023/09/30 06:42:44;;;;;;;16.87;9.63;;;12.20;99.90;;;;;;4993667;28;20180;-71
2023/09/30 06:45:10;;;;;;;20.40;10.63;;;12.20;99.90;;;;;;4989334;28;20170;-71
2023/09/30 06:47:37;;;;;;;23.27;11.87;;;12.40;99.90;;;;;;4986076;28;20189;-70
2023/09/30 06:50:07;;;;;;;19.43;11.13;;;12.80;99.90;;;;;;4979064;28;20677;-72
2023/09/30 06:52:41;;;;;;;22.80;12.57;;;13.20;99.90;;;;;;4990234;28;20509;-73
2023/09/30 06:55:07;;;;;;;17.80;11.43;;;13.80;99.90;;;;;;4993616;28;20692;-72
2023/09/30 06:57:37;;;;;;;17.07;10.67;;;14.20;99.90;;;;;;4993286;28;20661;-72
2023/09/30 07:00:11;;;;;;;15.33;10.27;;;14.70;99.90;;;;;;4978336;28;20197;-72
2023/09/30 07:02:38;;;;;;;17.23;8.93;;;15.10;99.90;;;;;;4985317;28;20180;-72
2023/09/30 07:05:12;;;;;;;13.27;7.87;;;15.60;99.90;;;;;;4993601;28;20260;-73
2023/09/30 07:07:38;;;;;;;12.30;7.80;;;16.00;99.90;;;;;;4993330;28;20683;-72
2023/09/30 07:10:06;;;;;;;10.27;7.80;;;16.40;99.90;;;;;;4993395;28;20209;-73
2023/09/30 07:12:35;;;;;;;9.83;6.47;;;16.70;99.90;;;;;;4992608;28;20189;-72
2023/09/30 07:15:01;;;;;;;9.70;6.90;;;17.00;99.90;;;;;;4993270;28;20223;-72
2023/09/30 07:17:27;;;;;;;8.43;5.93;;;17.20;99.90;;;;;;4987470;28;20181;-71
2023/09/30 07:19:53;;;;;;;10.00;5.97;;;17.60;99.90;;;;;;4987575;28;20707;-71
2023/09/30 07:22:18;;;;;;;9.77;6.70;;;18.10;99.90;;;;;;4992586;28;20252;-72
2023/09/30 07:24:44;;;;;;;9.93;6.77;;;18.50;99.90;;;;;;4992960;28;20212;-72
2023/09/30 07:27:10;;;;;;;11.63;6.53;;;18.80;99.90;;;;;;4992848;28;20200;-73
2023/09/30 07:29:35;;;;;;;9.20;6.43;;;18.90;99.90;;;;;;4992649;28;20672;-72
2023/09/30 07:32:01;;;;;;;8.88;6.55;;;19.10;99.90;;;;;;4978713;28;20215;-72
2023/09/30 07:34:26;;;;;;;7.63;6.43;;;19.40;99.90;;;;;;4984054;28;20201;-71
2023/09/30 07:36:52;;;;;;;12.10;6.40;;;19.70;99.90;;;;;;4992735;28;20188;-69
2023/09/30 07:39:18;;;;;;;9.32;7.10;;;20.00;99.90;;;;;;4992027;28;20248;-73
2023/09/30 07:41:43;;;;;;;7.88;6.68;;;20.40;99.90;;;;;;4992433;28;20184;-72
2023/09/30 07:44:09;;;;;;;8.38;6.97;;;20.90;99.90;;;;;;4992695;28;20643;-71
2023/09/30 07:46:35;;;;;;;12.68;6.95;;;21.40;99.90;;;;;;4988170;28;20225;-72
2023/09/30 07:49:03;;;;;;;9.45;6.90;;;21.80;99.90;;;;;;4987652;28;20616;-71
2023/09/30 07:51:29;;;;;;;7.75;6.13;;;22.00;99.90;;;;;;4991267;28;20271;-71
2023/09/30 07:53:55;;;;;;;6.72;5.47;;;22.40;99.90;;;;;;4992370;28;20200;-71
2023/09/30 07:56:21;;;;;;;8.23;6.07;;;22.70;99.90;;;;;;4992112;28;20184;-71
2023/09/30 07:58:48;;;;;;;11.63;7.15;;;22.90;99.90;;;;;;4992520;28;20176;-71
2023/09/30 08:01:14;;;;;;;8.27;6.28;;;23.00;99.90;;;;;;4989641;28;20192;-70
2023/09/30 08:03:40;;;;;;;8.70;6.40;;;23.10;99.90;;;;;;4989895;28;20184;-70
2023/09/30 08:06:08;;;;;;;12.85;6.03;;;23.30;99.90;;;;;;4992231;28;20583;-70
2023/09/30 08:08:35;;;;;;;7.68;6.13;;;23.70;99.90;;;;;;4991816;28;20592;-71
2023/09/30 08:11:00;;;;;;;10.40;6.32;;;24.10;99.90;;;;;;4991829;28;20396;-71
2023/09/30 08:13:26;;;;;;;6.82;6.13;;;24.40;99.90;;;;;;4991735;28;20766;-70
2023/09/30 08:15:53;;;;;;;9.25;6.25;;;24.70;99.90;;;;;;4988131;28;20243;-71
2023/09/30 08:18:18;;;;;;;8.43;6.35;;;25.10;99.90;;;;;;4989835;28;20661;-71
2023/09/30 08:20:44;;;;;;;10.80;6.15;;;25.40;99.90;;;;;;4984741;28;20240;-70
2023/09/30 08:23:11;;;;;;;10.35;6.35;;;25.90;99.90;;;;;;4991666;28;20585;-70
2023/09/30 08:25:37;;;;;;;9.15;5.78;;;26.20;99.90;;;;;;4991623;28;20184;-72
2023/09/30 08:28:04;;;;;;;7.65;6.57;;;26.60;99.90;;;;;;4991848;28;20185;-72
2023/09/30 08:30:30;;;;;;;8.75;6.22;;;27.10;99.90;;;;;;4984903;28;20212;-70
2023/09/30 08:32:56;;;;;;;6.35;5.43;;;27.10;99.90;;;;;;4985498;28;20181;-71
2023/09/30 08:35:21;;;;;;;10.32;6.38;;;27.20;99.90;;;;;;4991419;28;20196;-72
2023/09/30 08:37:47;;;;;;;8.18;6.65;;;27.30;99.90;;;;;;4983649;28;20254;-71
2023/09/30 08:40:13;;;;;;;8.75;5.60;;;27.50;99.90;;;;;;4991619;28;20290;-70
2023/09/30 08:42:39;;;;;;;9.27;7.25;;;27.60;99.90;;;;;;4991215;28;20177;-71
2023/09/30 08:45:08;;;;;;;10.00;6.63;;;27.40;99.90;;;;;;4991905;28;20177;-71
2023/09/30 08:47:35;;;;;;;6.68;5.75;;;27.20;99.90;;;;;;4990978;28;20235;-71
2023/09/30 08:50:10;;;;;;;9.75;7.28;;;27.10;99.90;;;;;;4991442;28;20581;-70
2023/09/30 08:52:40;;;;;;;9.00;6.35;;;26.80;99.90;;;;;;4981580;28;20213;-71
2023/09/30 08:55:10;;;;;;;9.00;6.65;;;26.50;99.90;;;;;;4986697;28;20275;-72
2023/09/30 08:57:41;;;;;;;8.15;7.20;;;26.30;99.90;;;;;;4989956;28;20243;-70
2023/09/30 09:00:11;;;;;;;7.47;6.32;;;26.10;99.90;;;;;;4991449;28;20197;-71
2023/09/30 09:02:37;;;;;;;8.30;6.85;;;26.10;99.90;;;;;;4992132;28;20194;-72
2023/09/30 09:05:03;;;;;;;8.57;6.53;;;26.10;99.90;;;;;;4995599;28;20191;-72
2023/09/30 09:07:30;;;;;;;9.38;6.60;;;25.90;99.90;;;;;;4986379;28;20194;-72
2023/09/30 09:10:08;;;;;;;10.52;6.85;;;26.00;99.90;;;;;;4995753;28;20204;-72
2023/09/30 09:12:35;;;;;;;10.65;6.72;;;26.20;99.90;;;;;;4993600;28;20668;-71
2023/09/30 09:15:01;;;;;;;8.20;6.38;;;26.40;99.90;;;;;;4993639;28;20216;-71
2023/09/30 09:17:44;;;;;;;7.82;6.32;;;26.50;99.90;;;;;;4992822;28;20231;-71
2023/09/30 09:20:12;;;;;;;9.45;6.07;;;26.60;99.90;;;;;;4986322;28;20206;-72
2023/09/30 09:22:43;;;;;;;9.18;5.82;;;26.40;99.90;;;;;;4985731;28;20646;-72
2023/09/30 09:25:09;;;;;;;9.35;5.38;;;26.10;99.90;;;;;;4995092;28;20606;-72
2023/09/30 09:27:35;;;;;;;6.45;5.70;;;25.80;99.90;;;;;;4994713;28;20176;-71
2023/09/30 09:30:19;;;;;;;8.90;5.57;;;25.70;99.90;;;;;;4994870;28;20287;-71
2023/09/30 09:33:05;;;;;;;8.30;5.55;;;26.00;99.90;;;;;;4994741;28;20495;-71
2023/09/30 09:35:33;;;;;;;7.88;5.53;;;26.10;99.90;;;;;;4994118;28;20191;-71
2023/09/30 09:38:03;;;;;;;8.82;5.13;;;26.20;99.90;;;;;;4994968;28;20692;-71
2023/09/30 09:40:36;;;;;;;10.95;5.03;;;26.20;99.90;;;;;;4994544;28;20211;-71
2023/09/30 09:43:05;;;;;;;8.20;5.45;;;26.10;99.90;;;;;;4994828;28;20176;-71
2023/09/30 09:45:36;;;;;;;7.65;5.25;;;26.00;99.90;;;;;;4994473;28;20593;-71
2023/09/30 09:48:04;;;;;;;7.43;4.78;;;26.00;99.90;;;;;;4994896;28;20220;-71
2023/09/30 09:50:31;;;;;;;7.43;5.32;;;25.80;99.90;;;;;;4993013;28;20279;-71
2023/09/30 09:53:00;;;;;;;8.02;4.95;;;25.60;99.90;;;;;;4994675;28;20176;-71
2023/09/30 09:55:27;;;;;;;6.63;4.60;;;25.40;99.90;;;;;;4994564;28;20177;-71
2023/09/30 09:57:54;;;;;;;7.10;4.72;;;25.40;99.90;;;;;;4994914;28;20540;-71
2023/09/30 10:00:25;;;;;;;5.97;3.55;;;25.50;99.90;;;;;;4994362;28;20203;-71
2023/09/30 10:02:51;;;;;;;7.70;4.38;;;25.50;99.90;;;;;;4994418;28;20169;-72
2023/09/30 10:05:18;;;;;;;8.05;4.45;;;25.50;99.90;;;;;;4994535;28;20181;-72
2023/09/30 10:07:54;;;;;;;5.25;4.43;;;25.40;99.90;;;;;;4985631;28;20652;-72
2023/09/30 10:10:22;;;;;;;8.07;4.53;;;25.40;99.90;;;;;;4982854;28;20502;-69
2023/09/30 10:12:48;;;;;;;6.20;4.18;;;24.90;99.90;;;;;;4986021;28;20191;-70
2023/09/30 10:15:26;;;;;;;7.97;4.05;;;24.70;99.90;;;;;;4992093;28;20551;-70
2023/09/30 10:17:58;;;;;;;4.85;4.05;;;24.30;99.90;;;;;;4987022;28;20188;-71
2023/09/30 10:20:31;;;;;;;6.28;4.10;;;23.80;99.90;;;;;;4994067;28;20243;-70
2023/09/30 10:23:22;;;;;;;8.00;4.22;;;23.30;99.90;;;;;;4993728;28;20181;-70
2023/09/30 10:25:51;;;;;;;9.30;5.60;;;22.90;99.90;;;;;;4993868;28;20645;-70
2023/09/30 10:28:38;;;;;;;8.02;4.75;;;23.00;99.90;;;;;;4986194;28;20886;-70
2023/09/30 10:31:24;;;;;;;6.22;4.40;;;23.10;99.90;;;;;;4988716;28;20205;-70
2023/09/30 10:33:59;;;;;;;6.88;4.18;;;23.20;99.90;;;;;;4986440;28;20201;-71
2023/09/30 10:36:41;;;;;;;11.10;3.80;;;23.10;99.90;;;;;;4994011;28;20200;-70
2023/09/30 10:39:17;;;;;;;9.77;3.92;;;23.00;99.90;;;;;;4993865;28;20222;-70
2023/09/30 10:41:45;;;;;;;8.75;3.78;;;22.90;99.90;;;;;;4993438;28;20183;-70
2023/09/30 10:44:26;;;;;;;9.88;4.82;;;23.00;99.90;;;;;;4989658;28;20205;-70
2023/09/30 10:46:58;;;;;;;5.95;3.53;;;23.10;99.90;;;;;;4985103;28;20200;-70
2023/09/30 10:49:24;;;;;;;7.22;3.83;;;23.20;99.90;;;;;;4993517;28;20220;-71
2023/09/30 10:51:57;;;;;;;7.35;3.53;;;23.40;99.90;;;;;;4993419;28;20208;-71
2023/09/30 10:54:25;;;;;;;9.88;3.80;;;23.70;99.90;;;;;;4993574;28;20688;-70
2023/09/30 10:56:55;;;;;;;5.82;3.60;;;24.00;99.90;;;;;;4993817;28;20650;-71
2023/09/30 10:59:22;;;;;;;8.32;3.58;;;24.40;99.90;;;;;;4987060;28;20198;-71
2023/09/30 11:01:49;;;;;;;9.18;3.80;;;24.70;99.90;;;;;;4977527;28;20172;-70
2023/09/30 11:04:15;;;;;;;5.72;4.10;;;24.80;99.90;;;;;;4993550;28;20189;-71
2023/09/30 11:06:41;;;;;;;4.85;3.65;;;24.80;99.90;;;;;;4993309;28;20687;-71
2023/09/30 11:09:13;;;;;;;6.38;4.07;;;24.90;99.90;;;;;;4993414;28;20219;-71
2023/09/30 11:11:43;;;;;;;7.03;3.70;;;24.80;99.90;;;;;;4988077;28;20178;-71
2023/09/30 11:14:23;;;;;;;5.93;3.58;;;24.80;99.90;;;;;;4992642;28;20212;-72
2023/09/30 11:16:53;;;;;;;7.40;4.03;;;24.80;99.90;;;;;;4989576;28;20187;-71
2023/09/30 11:19:20;;;;;;;7.28;3.25;;;24.70;99.90;;;;;;4989106;28;20196;-71
2023/09/30 11:21:48;;;;;;;6.88;3.55;;;24.90;99.90;;;;;;4991457;28;20180;-72
2023/09/30 11:24:14;;;;;;;6.10;3.75;;;25.10;99.90;;;;;;4992946;28;20184;-72
2023/09/30 11:26:43;;;;;;;4.85;3.42;;;25.10;99.90;;;;;;4991481;28;20177;-72
2023/09/30 11:29:15;;;;;;;5.00;3.65;;;24.70;99.90;;;;;;4986930;28;20232;-72
2023/09/30 11:31:43;;;;;;;6.90;3.72;;;24.60;99.90;;;;;;4992149;28;20177;-72
2023/09/30 11:34:09;;;;;;;9.52;4.65;;;24.40;99.90;;;;;;4992740;28;20196;-72
2023/09/30 11:36:49;;;;;;;5.38;3.20;;;24.40;99.90;;;;;;4992308;28;20544;-71
2023/09/30 11:39:26;;;;;;;6.90;3.47;;;24.30;99.90;;;;;;4986805;28;20201;-72
2023/09/30 11:41:52;;;;;;;11.82;3.63;;;23.70;99.90;;;;;;4983036;28;20180;-72
2023/09/30 11:44:18;;;;;;;6.60;3.17;;;23.30;99.90;;;;;;4992466;28;20177;-72
2023/09/30 11:46:54;;;;;;;7.63;3.65;;;23.20;99.90;;;;;;4992131;28;20288;-72
2023/09/30 11:49:29;;;;;;;8.07;3.42;;;23.00;99.90;;;;;;4992476;28;20278;-72
2023/09/30 11:51:59;;;;;;;5.78;3.17;;;22.90;99.90;;;;;;4990718;28;20594;-72
2023/09/30 11:54:45;;;;;;;7.22;3.70;;;22.80;99.90;;;;;;4984378;28;20541;-71
2023/09/30 11:57:18;;;;;;;6.10;2.90;;;22.90;99.90;;;;;;4990970;28;20180;-70
2023/09/30 11:59:47;;;;;;;7.18;3.28;;;23.10;99.90;;;;;;4988036;28;20201;-71
2023/09/30 12:02:17;;;;;;;5.82;3.47;;;23.10;99.90;;;;;;4992049;28;20181;-71
2023/09/30 12:04:44;;;;;;;10.88;3.53;;;23.10;99.90;;;;;;4991979;28;20184;-71
2023/09/30 12:07:10;;;;;;;8.00;3.30;;;23.20;99.90;;;;;;4992397;28;20185;-71
2023/09/30 12:09:40;;;;;;;5.05;3.42;;;23.40;99.90;;;;;;4991724;28;20735;-71
2023/09/30 12:12:09;;;;;;;4.30;3.17;;;23.70;99.90;;;;;;4991966;28;20181;-71
2023/09/30 12:14:35;;;;;;;6.40;3.30;;;24.00;99.90;;;;;;4988549;28;20215;-71
2023/09/30 12:17:00;;;;;;;9.32;3.17;;;23.80;99.90;;;;;;4992272;28;20687;-72
2023/09/30 12:19:26;;;;;;;3.85;2.65;;;23.90;99.90;;;;;;4991976;28;20673;-72
2023/09/30 12:21:52;;;;;;;4.63;2.97;;;24.10;99.90;;;;;;4982318;28;20219;-74
2023/09/30 12:24:23;;;;;;;4.65;2.88;;;24.30;99.90;;;;;;4991989;28;20169;-71
2023/09/30 12:26:51;;;;;;;9.25;3.50;;;24.40;99.90;;;;;;4991714;28;20173;-70
2023/09/30 12:29:21;;;;;;;6.85;3.13;;;24.40;99.90;;;;;;4991519;28;20200;-71
2023/09/30 12:31:49;;;;;;;5.03;2.80;;;24.60;99.90;;;;;;4991444;28;20543;-71
2023/09/30 12:34:15;;;;;;;5.35;3.10;;;24.80;99.90;;;;;;4991760;28;20722;-70
2023/09/30 12:36:41;;;;;;;6.97;3.42;;;24.80;99.90;;;;;;4989202;28;20216;-73
2023/09/30 12:39:10;;;;;;;5.15;3.30;;;24.90;99.90;;;;;;4991798;28;20195;-73
2023/09/30 12:41:43;;;;;;;5.40;3.03;;;24.90;99.90;;;;;;4991188;28;20207;-73
2023/09/30 12:44:10;;;;;;;5.93;3.05;;;24.90;99.90;;;;;;4988624;28;20184;-74